sensor_id;sensor_type;location;lat;lon;timestamp;P1;durP1;ratioP1;P2;durP2;ratioP2
20824;SDS011;10573;50.936;6.978;2023-06-26T00:00:24;7.25;;;5.10;;
20824;SDS011;10573;50.936;6.978;2023-06-26T00:02:50;7.95;;;5.38;;
20824;SDS011;10573;50.936;6.978;2023-06-26T00:05:15;5.60;;;5.00;;
20824;SDS011;10573;50.936;6.978;2023-06-26T00:07:40;8.60;;;5.57;;
20824;SDS011;10573;50.936;6.978;2023-06-26T00:10:06;7.10;;;5.43;;
20824;SDS011;10573;50.936;6.978;2023-06-26T00:12:32;5.93;;;5.00;;
20824;SDS011;10573;50.936;6.978;2023-06-26T00:14:58;7.00;;;5.78;;
20824;SDS011;10573;50.936;6.978;2023-06-26T00:17:23;6.93;;;5.30;;
20824;SDS011;10573;50.936;6.978;2023-06-26T00:19:49;5.85;;;5.25;;
20824;SDS011;10573;50.936;6.978;2023-06-26T00:22:16;7.53;;;5.47;;
20824;SDS011;10573;50.936;6.978;2023-06-26T00:24:43;6.72;;;4.75;;
20824;SDS011;10573;50.936;6.978;2023-06-26T00:27:10;6.93;;;5.32;;
20824;SDS011;10573;50.936;6.978;2023-06-26T00:29:35;6.80;;;4.90;;
20824;SDS011;10573;50.936;6.978;2023-06-26T00:32:01;5.40;;;4.72;;
20824;SDS011;10573;50.936;6.978;2023-06-26T00:34:26;8.80;;;4.72;;
20824;SDS011;10573;50.936;6.978;2023-06-26T00:36:52;6.35;;;5.20;;
20824;SDS011;10573;50.936;6.978;2023-06-26T00:39:17;6.50;;;5.50;;
20824;SDS011;10573;50.936;6.978;2023-06-26T00:41:42;6.63;;;4.85;;
20824;SDS011;10573;50.936;6.978;2023-06-26T00:44:08;6.43;;;5.47;;
20824;SDS011;10573;50.936;6.978;2023-06-26T00:46:33;6.68;;;4.57;;
20824;SDS011;10573;50.936;6.978;2023-06-26T00:49:00;5.50;;;4.88;;
20824;SDS011;10573;50.936;6.978;2023-06-26T00:51:28;5.10;;;4.35;;
20824;SDS011;10573;50.936;6.978;2023-06-26T00:53:55;6.63;;;5.25;;
20824;SDS011;10573;50.936;6.978;2023-06-26T00:56:21;5.43;;;4.90;;
20824;SDS011;10573;50.936;6.978;2023-06-26T00:58:47;6.38;;;4.50;;
20824;SDS011;10573;50.936;6.978;2023-06-26T01:01:12;6.35;;;5.38;;
20824;SDS011;10573;50.936;6.978;2023-06-26T01:03:45;8.60;;;5.25;;
20824;SDS011;10573;50.936;6.978;2023-06-26T01:06:17;5.85;;;5.00;;
20824;SDS011;10573;50.936;6.978;2023-06-26T01:08:43;5.90;;;5.18;;
20824;SDS011;10573;50.936;6.978;2023-06-26T01:11:10;7.28;;;5.00;;
20824;SDS011;10573;50.936;6.978;2023-06-26T01:13:36;5.68;;;5.03;;
20824;SDS011;10573;50.936;6.978;2023-06-26T01:16:03;7.68;;;5.10;;
20824;SDS011;10573;50.936;6.978;2023-06-26T01:18:30;9.57;;;5.63;;
20824;SDS011;10573;50.936;6.978;2023-06-26T01:20:57;7.03;;;4.97;;
20824;SDS011;10573;50.936;6.978;2023-06-26T01:26:24;8.88;;;5.15;;
20824;SDS011;10573;50.936;6.978;2023-06-26T01:28:52;9.90;;;5.32;;
20824;SDS011;10573;50.936;6.978;2023-06-26T01:31:19;7.18;;;5.57;;
20824;SDS011;10573;50.936;6.978;2023-06-26T01:33:45;7.43;;;5.25;;
20824;SDS011;10573;50.936;6.978;2023-06-26T01:36:12;6.15;;;5.50;;
20824;SDS011;10573;50.936;6.978;2023-06-26T01:38:37;6.15;;;5.28;;
20824;SDS011;10573;50.936;6.978;2023-06-26T01:41:03;8.45;;;5.30;;
20824;SDS011;10573;50.936;6.978;2023-06-26T01:46:05;6.93;;;6.13;;
20824;SDS011;10573;50.936;6.978;2023-06-26T01:48:49;7.05;;;5.97;;
20824;SDS011;10573;50.936;6.978;2023-06-26T01:51:20;8.85;;;5.93;;
20824;SDS011;10573;50.936;6.978;2023-06-26T01:53:52;6.20;;;5.60;;
20824;SDS011;10573;50.936;6.978;2023-06-26T01:56:21;6.93;;;5.68;;
20824;SDS011;10573;50.936;6.978;2023-06-26T01:58:48;7.72;;;5.60;;
20824;SDS011;10573;50.936;6.978;2023-06-26T02:01:18;6.20;;;5.55;;
20824;SDS011;10573;50.936;6.978;2023-06-26T02:03:43;12.80;;;5.80;;
20824;SDS011;10573;50.936;6.978;2023-06-26T02:06:09;7.57;;;5.30;;
20824;SDS011;10573;50.936;6.978;2023-06-26T02:08:35;8.33;;;5.93;;
20824;SDS011;10573;50.936;6.978;2023-06-26T02:11:01;9.73;;;6.82;;
20824;SDS011;10573;50.936;6.978;2023-06-26T02:13:26;6.00;;;5.40;;
20824;SDS011;10573;50.936;6.978;2023-06-26T02:15:51;7.15;;;5.82;;
20824;SDS011;10573;50.936;6.978;2023-06-26T02:18:17;7.28;;;5.65;;
20824;SDS011;10573;50.936;6.978;2023-06-26T02:20:42;7.20;;;5.35;;
20824;SDS011;10573;50.936;6.978;2023-06-26T02:23:09;9.05;;;5.72;;
20824;SDS011;10573;50.936;6.978;2023-06-26T02:25:34;6.28;;;5.50;;
20824;SDS011;10573;50.936;6.978;2023-06-26T02:28:00;6.47;;;5.38;;
20824;SDS011;10573;50.936;6.978;2023-06-26T02:30:25;9.57;;;5.97;;
20824;SDS011;10573;50.936;6.978;2023-06-26T02:32:50;7.50;;;6.00;;
20824;SDS011;10573;50.936;6.978;2023-06-26T02:35:16;7.43;;;5.93;;
20824;SDS011;10573;50.936;6.978;2023-06-26T02:37:41;8.70;;;5.70;;
20824;SDS011;10573;50.936;6.978;2023-06-26T02:40:07;6.97;;;6.28;;
20824;SDS011;10573;50.936;6.978;2023-06-26T02:42:34;6.97;;;5.82;;
20824;SDS011;10573;50.936;6.978;2023-06-26T02:45:00;9.57;;;6.00;;
20824;SDS011;10573;50.936;6.978;2023-06-26T02:47:25;6.93;;;6.23;;
20824;SDS011;10573;50.936;6.978;2023-06-26T02:49:51;7.30;;;5.53;;
20824;SDS011;10573;50.936;6.978;2023-06-26T02:52:16;8.17;;;6.00;;
20824;SDS011;10573;50.936;6.978;2023-06-26T02:54:41;7.80;;;6.20;;
20824;SDS011;10573;50.936;6.978;2023-06-26T02:57:07;6.43;;;5.80;;
20824;SDS011;10573;50.936;6.978;2023-06-26T02:59:32;10.47;;;6.80;;
20824;SDS011;10573;50.936;6.978;2023-06-26T03:01:58;7.20;;;6.10;;
20824;SDS011;10573;50.936;6.978;2023-06-26T03:04:24;7.38;;;5.85;;
20824;SDS011;10573;50.936;6.978;2023-06-26T03:06:49;7.93;;;6.60;;
20824;SDS011;10573;50.936;6.978;2023-06-26T03:09:14;8.52;;;6.35;;
20824;SDS011;10573;50.936;6.978;2023-06-26T03:11:41;11.32;;;6.20;;
20824;SDS011;10573;50.936;6.978;2023-06-26T03:14:06;7.57;;;6.53;;
20824;SDS011;10573;50.936;6.978;2023-06-26T03:16:32;6.83;;;5.93;;
20824;SDS011;10573;50.936;6.978;2023-06-26T03:18:57;8.23;;;5.90;;
20824;SDS011;10573;50.936;6.978;2023-06-26T03:21:22;7.67;;;6.20;;
20824;SDS011;10573;50.936;6.978;2023-06-26T03:23:48;8.40;;;6.10;;
20824;SDS011;10573;50.936;6.978;2023-06-26T03:26:13;7.63;;;5.70;;
20824;SDS011;10573;50.936;6.978;2023-06-26T03:28:40;7.28;;;6.40;;
20824;SDS011;10573;50.936;6.978;2023-06-26T03:31:05;6.85;;;5.68;;
20824;SDS011;10573;50.936;6.978;2023-06-26T03:33:32;6.27;;;5.60;;
20824;SDS011;10573;50.936;6.978;2023-06-26T03:35:57;5.35;;;4.82;;
20824;SDS011;10573;50.936;6.978;2023-06-26T03:38:24;6.10;;;4.93;;
20824;SDS011;10573;50.936;6.978;2023-06-26T03:40:50;5.70;;;4.90;;
20824;SDS011;10573;50.936;6.978;2023-06-26T03:43:16;8.07;;;4.93;;
20824;SDS011;10573;50.936;6.978;2023-06-26T03:45:41;9.17;;;4.93;;
20824;SDS011;10573;50.936;6.978;2023-06-26T03:48:07;8.20;;;4.90;;
20824;SDS011;10573;50.936;6.978;2023-06-26T03:50:33;6.10;;;4.90;;
20824;SDS011;10573;50.936;6.978;2023-06-26T03:52:58;7.38;;;5.13;;
20824;SDS011;10573;50.936;6.978;2023-06-26T03:55:24;6.43;;;4.80;;
20824;SDS011;10573;50.936;6.978;2023-06-26T03:57:49;9.40;;;4.83;;
20824;SDS011;10573;50.936;6.978;2023-06-26T04:00:15;6.30;;;4.65;;
20824;SDS011;10573;50.936;6.978;2023-06-26T04:02:41;6.30;;;4.70;;
20824;SDS011;10573;50.936;6.978;2023-06-26T04:05:06;6.13;;;4.55;;
20824;SDS011;10573;50.936;6.978;2023-06-26T04:07:32;6.73;;;4.37;;
20824;SDS011;10573;50.936;6.978;2023-06-26T04:09:57;6.57;;;4.50;;
20824;SDS011;10573;50.936;6.978;2023-06-26T04:12:23;6.88;;;4.38;;
20824;SDS011;10573;50.936;6.978;2023-06-26T04:14:48;7.43;;;4.50;;
20824;SDS011;10573;50.936;6.978;2023-06-26T04:17:14;9.93;;;4.60;;
20824;SDS011;10573;50.936;6.978;2023-06-26T04:19:39;7.30;;;4.50;;
20824;SDS011;10573;50.936;6.978;2023-06-26T04:22:05;10.13;;;4.97;;
20824;SDS011;10573;50.936;6.978;2023-06-26T04:24:30;8.10;;;4.80;;
20824;SDS011;10573;50.936;6.978;2023-06-26T04:26:56;9.23;;;4.70;;
20824;SDS011;10573;50.936;6.978;2023-06-26T04:29:25;6.30;;;4.30;;
20824;SDS011;10573;50.936;6.978;2023-06-26T04:31:52;6.60;;;4.53;;
20824;SDS011;10573;50.936;6.978;2023-06-26T04:34:23;6.95;;;4.60;;
20824;SDS011;10573;50.936;6.978;2023-06-26T04:36:49;9.85;;;4.30;;
20824;SDS011;10573;50.936;6.978;2023-06-26T04:39:15;7.93;;;4.18;;
20824;SDS011;10573;50.936;6.978;2023-06-26T04:41:41;10.03;;;4.23;;
20824;SDS011;10573;50.936;6.978;2023-06-26T04:44:06;7.47;;;4.33;;
20824;SDS011;10573;50.936;6.978;2023-06-26T04:46:32;9.20;;;4.60;;
20824;SDS011;10573;50.936;6.978;2023-06-26T04:48:57;7.35;;;4.40;;
20824;SDS011;10573;50.936;6.978;2023-06-26T04:51:23;6.33;;;4.37;;
20824;SDS011;10573;50.936;6.978;2023-06-26T04:53:49;11.00;;;4.85;;
20824;SDS011;10573;50.936;6.978;2023-06-26T04:56:16;8.05;;;4.20;;
20824;SDS011;10573;50.936;6.978;2023-06-26T04:58:41;6.97;;;4.00;;
20824;SDS011;10573;50.936;6.978;2023-06-26T05:01:07;7.00;;;4.40;;
20824;SDS011;10573;50.936;6.978;2023-06-26T05:03:33;6.53;;;3.83;;
20824;SDS011;10573;50.936;6.978;2023-06-26T05:05:59;9.82;;;4.40;;
20824;SDS011;10573;50.936;6.978;2023-06-26T05:08:24;6.55;;;4.22;;
20824;SDS011;10573;50.936;6.978;2023-06-26T05:10:52;5.30;;;4.30;;
20824;SDS011;10573;50.936;6.978;2023-06-26T05:13:18;8.15;;;3.90;;
20824;SDS011;10573;50.936;6.978;2023-06-26T05:15:45;6.13;;;4.57;;
20824;SDS011;10573;50.936;6.978;2023-06-26T05:18:11;9.90;;;4.72;;
20824;SDS011;10573;50.936;6.978;2023-06-26T05:20:36;10.05;;;4.60;;
20824;SDS011;10573;50.936;6.978;2023-06-26T05:23:02;9.10;;;3.87;;
20824;SDS011;10573;50.936;6.978;2023-06-26T05:25:29;6.65;;;4.30;;
20824;SDS011;10573;50.936;6.978;2023-06-26T05:27:55;5.93;;;4.13;;
20824;SDS011;10573;50.936;6.978;2023-06-26T05:30:24;8.52;;;4.43;;
20824;SDS011;10573;50.936;6.978;2023-06-26T05:32:51;6.93;;;4.15;;
20824;SDS011;10573;50.936;6.978;2023-06-26T05:35:17;6.50;;;4.30;;
20824;SDS011;10573;50.936;6.978;2023-06-26T05:37:43;8.82;;;4.30;;
20824;SDS011;10573;50.936;6.978;2023-06-26T05:40:09;6.18;;;4.45;;
20824;SDS011;10573;50.936;6.978;2023-06-26T05:42:35;9.00;;;4.72;;
20824;SDS011;10573;50.936;6.978;2023-06-26T05:45:01;6.43;;;4.50;;
20824;SDS011;10573;50.936;6.978;2023-06-26T05:47:26;7.97;;;3.90;;
20824;SDS011;10573;50.936;6.978;2023-06-26T05:49:52;8.23;;;4.10;;
20824;SDS011;10573;50.936;6.978;2023-06-26T05:52:17;12.48;;;4.80;;
20824;SDS011;10573;50.936;6.978;2023-06-26T05:54:43;11.63;;;4.23;;
20824;SDS011;10573;50.936;6.978;2023-06-26T05:57:09;9.07;;;3.90;;
20824;SDS011;10573;50.936;6.978;2023-06-26T05:59:35;7.55;;;3.90;;
20824;SDS011;10573;50.936;6.978;2023-06-26T06:02:04;10.52;;;4.22;;
20824;SDS011;10573;50.936;6.978;2023-06-26T06:04:29;7.20;;;4.27;;
20824;SDS011;10573;50.936;6.978;2023-06-26T06:06:55;8.00;;;4.07;;
20824;SDS011;10573;50.936;6.978;2023-06-26T06:09:20;11.57;;;4.10;;
20824;SDS011;10573;50.936;6.978;2023-06-26T06:11:46;8.27;;;4.30;;
20824;SDS011;10573;50.936;6.978;2023-06-26T06:14:11;8.43;;;4.30;;
20824;SDS011;10573;50.936;6.978;2023-06-26T06:16:37;8.35;;;4.40;;
20824;SDS011;10573;50.936;6.978;2023-06-26T06:19:03;6.50;;;4.33;;
20824;SDS011;10573;50.936;6.978;2023-06-26T06:21:29;9.30;;;4.22;;
20824;SDS011;10573;50.936;6.978;2023-06-26T06:23:55;8.13;;;4.13;;
20824;SDS011;10573;50.936;6.978;2023-06-26T06:26:20;8.57;;;4.27;;
20824;SDS011;10573;50.936;6.978;2023-06-26T06:28:45;14.48;;;4.55;;
20824;SDS011;10573;50.936;6.978;2023-06-26T06:31:11;8.15;;;4.18;;
20824;SDS011;10573;50.936;6.978;2023-06-26T06:33:36;8.43;;;4.17;;
20824;SDS011;10573;50.936;6.978;2023-06-26T06:36:02;7.03;;;4.33;;
20824;SDS011;10573;50.936;6.978;2023-06-26T06:38:27;8.87;;;4.30;;
20824;SDS011;10573;50.936;6.978;2023-06-26T06:40:52;11.23;;;4.80;;
20824;SDS011;10573;50.936;6.978;2023-06-26T06:43:18;10.63;;;4.70;;
20824;SDS011;10573;50.936;6.978;2023-06-26T06:45:44;8.07;;;4.60;;
20824;SDS011;10573;50.936;6.978;2023-06-26T06:48:10;7.85;;;4.22;;
20824;SDS011;10573;50.936;6.978;2023-06-26T06:50:35;6.93;;;3.75;;
20824;SDS011;10573;50.936;6.978;2023-06-26T06:53:01;9.00;;;4.00;;
20824;SDS011;10573;50.936;6.978;2023-06-26T06:55:26;9.07;;;4.10;;
20824;SDS011;10573;50.936;6.978;2023-06-26T06:57:52;9.43;;;4.00;;
20824;SDS011;10573;50.936;6.978;2023-06-26T07:00:17;14.70;;;4.93;;
20824;SDS011;10573;50.936;6.978;2023-06-26T07:02:44;12.13;;;4.90;;
20824;SDS011;10573;50.936;6.978;2023-06-26T07:05:10;8.35;;;4.15;;
20824;SDS011;10573;50.936;6.978;2023-06-26T07:07:36;8.18;;;4.18;;
20824;SDS011;10573;50.936;6.978;2023-06-26T07:10:03;9.20;;;3.83;;
20824;SDS011;10573;50.936;6.978;2023-06-26T07:12:29;12.63;;;4.20;;
20824;SDS011;10573;50.936;6.978;2023-06-26T07:14:55;9.27;;;3.95;;
20824;SDS011;10573;50.936;6.978;2023-06-26T07:17:21;9.00;;;3.60;;
20824;SDS011;10573;50.936;6.978;2023-06-26T07:19:47;7.77;;;3.60;;
20824;SDS011;10573;50.936;6.978;2023-06-26T07:22:13;9.60;;;4.40;;
20824;SDS011;10573;50.936;6.978;2023-06-26T07:24:38;10.82;;;4.00;;
20824;SDS011;10573;50.936;6.978;2023-06-26T07:27:04;11.90;;;4.10;;
20824;SDS011;10573;50.936;6.978;2023-06-26T07:29:29;11.17;;;3.93;;
20824;SDS011;10573;50.936;6.978;2023-06-26T07:31:55;7.10;;;4.17;;
20824;SDS011;10573;50.936;6.978;2023-06-26T07:34:20;8.10;;;4.22;;
20824;SDS011;10573;50.936;6.978;2023-06-26T07:36:46;13.10;;;4.80;;
20824;SDS011;10573;50.936;6.978;2023-06-26T07:39:11;8.23;;;4.43;;
20824;SDS011;10573;50.936;6.978;2023-06-26T07:41:36;8.90;;;4.20;;
20824;SDS011;10573;50.936;6.978;2023-06-26T07:44:02;8.88;;;4.35;;
20824;SDS011;10573;50.936;6.978;2023-06-26T07:46:27;11.23;;;4.50;;
20824;SDS011;10573;50.936;6.978;2023-06-26T07:48:53;12.80;;;4.40;;
20824;SDS011;10573;50.936;6.978;2023-06-26T07:51:19;11.30;;;4.30;;
20824;SDS011;10573;50.936;6.978;2023-06-26T07:53:44;13.13;;;4.63;;
20824;SDS011;10573;50.936;6.978;2023-06-26T07:56:10;11.35;;;4.85;;
20824;SDS011;10573;50.936;6.978;2023-06-26T07:58:35;7.53;;;3.83;;
20824;SDS011;10573;50.936;6.978;2023-06-26T08:01:01;9.13;;;3.70;;
20824;SDS011;10573;50.936;6.978;2023-06-26T08:03:26;8.77;;;4.30;;
20824;SDS011;10573;50.936;6.978;2023-06-26T08:05:51;13.45;;;3.85;;
20824;SDS011;10573;50.936;6.978;2023-06-26T08:08:17;8.27;;;3.90;;
20824;SDS011;10573;50.936;6.978;2023-06-26T08:10:42;12.13;;;4.30;;
20824;SDS011;10573;50.936;6.978;2023-06-26T08:13:08;11.33;;;4.00;;
20824;SDS011;10573;50.936;6.978;2023-06-26T08:15:33;7.97;;;3.63;;
20824;SDS011;10573;50.936;6.978;2023-06-26T08:17:59;10.17;;;3.97;;
20824;SDS011;10573;50.936;6.978;2023-06-26T08:20:24;12.43;;;4.13;;
20824;SDS011;10573;50.936;6.978;2023-06-26T08:22:50;11.38;;;4.18;;
20824;SDS011;10573;50.936;6.978;2023-06-26T08:25:17;12.52;;;4.40;;
20824;SDS011;10573;50.936;6.978;2023-06-26T08:27:43;9.65;;;4.13;;
20824;SDS011;10573;50.936;6.978;2023-06-26T08:30:08;11.57;;;4.30;;
20824;SDS011;10573;50.936;6.978;2023-06-26T08:32:34;11.38;;;4.22;;
20824;SDS011;10573;50.936;6.978;2023-06-26T08:34:59;11.40;;;4.20;;
20824;SDS011;10573;50.936;6.978;2023-06-26T08:37:25;11.43;;;4.30;;
20824;SDS011;10573;50.936;6.978;2023-06-26T08:39:50;10.35;;;3.78;;
20824;SDS011;10573;50.936;6.978;2023-06-26T08:42:16;12.63;;;4.00;;
20824;SDS011;10573;50.936;6.978;2023-06-26T08:44:41;11.30;;;3.60;;
20824;SDS011;10573;50.936;6.978;2023-06-26T08:47:07;13.70;;;4.13;;
20824;SDS011;10573;50.936;6.978;2023-06-26T08:49:43;7.25;;;3.42;;
20824;SDS011;10573;50.936;6.978;2023-06-26T08:52:28;7.40;;;3.60;;
20824;SDS011;10573;50.936;6.978;2023-06-26T08:54:57;9.85;;;4.05;;
20824;SDS011;10573;50.936;6.978;2023-06-26T08:57:25;6.30;;;3.95;;
20824;SDS011;10573;50.936;6.978;2023-06-26T08:59:51;8.18;;;3.30;;
20824;SDS011;10573;50.936;6.978;2023-06-26T09:02:17;8.43;;;3.20;;
20824;SDS011;10573;50.936;6.978;2023-06-26T09:04:43;7.47;;;3.72;;
20824;SDS011;10573;50.936;6.978;2023-06-26T09:07:09;10.87;;;3.77;;
20824;SDS011;10573;50.936;6.978;2023-06-26T09:09:34;8.23;;;3.67;;
20824;SDS011;10573;50.936;6.978;2023-06-26T09:12:03;6.45;;;3.30;;
20824;SDS011;10573;50.936;6.978;2023-06-26T09:41:28;7.38;;;2.85;;
20824;SDS011;10573;50.936;6.978;2023-06-26T09:43:53;7.07;;;2.80;;
20824;SDS011;10573;50.936;6.978;2023-06-26T09:46:26;7.45;;;2.60;;
20824;SDS011;10573;50.936;6.978;2023-06-26T10:23:23;11.50;;;2.88;;
20824;SDS011;10573;50.936;6.978;2023-06-26T10:35:44;9.52;;;1.92;;
20824;SDS011;10573;50.936;6.978;2023-06-26T10:38:10;7.90;;;2.10;;
20824;SDS011;10573;50.936;6.978;2023-06-26T10:45:45;10.80;;;2.10;;
20824;SDS011;10573;50.936;6.978;2023-06-26T10:55:50;12.15;;;2.17;;
20824;SDS011;10573;50.936;6.978;2023-06-26T11:06:20;4.38;;;2.20;;
20824;SDS011;10573;50.936;6.978;2023-06-26T11:08:47;5.43;;;2.25;;
20824;SDS011;10573;50.936;6.978;2023-06-26T11:11:13;7.07;;;2.60;;
20824;SDS011;10573;50.936;6.978;2023-06-26T11:13:39;5.47;;;1.90;;
20824;SDS011;10573;50.936;6.978;2023-06-26T11:16:06;5.18;;;2.00;;
20824;SDS011;10573;50.936;6.978;2023-06-26T11:18:32;4.63;;;1.57;;
20824;SDS011;10573;50.936;6.978;2023-06-26T11:21:10;5.00;;;1.92;;
20824;SDS011;10573;50.936;6.978;2023-06-26T11:23:38;5.38;;;1.90;;
20824;SDS011;10573;50.936;6.978;2023-06-26T11:28:45;5.63;;;1.98;;
20824;SDS011;10573;50.936;6.978;2023-06-26T11:31:23;5.85;;;2.00;;
20824;SDS011;10573;50.936;6.978;2023-06-26T11:34:02;5.35;;;2.40;;
20824;SDS011;10573;50.936;6.978;2023-06-26T11:36:29;5.43;;;1.88;;
20824;SDS011;10573;50.936;6.978;2023-06-26T11:38:56;8.10;;;1.90;;
20824;SDS011;10573;50.936;6.978;2023-06-26T11:41:26;6.32;;;2.08;;
20824;SDS011;10573;50.936;6.978;2023-06-26T12:05:49;5.38;;;1.48;;
20824;SDS011;10573;50.936;6.978;2023-06-26T12:08:17;3.63;;;1.80;;
20824;SDS011;10573;50.936;6.978;2023-06-26T12:10:43;8.00;;;1.58;;
20824;SDS011;10573;50.936;6.978;2023-06-26T12:30:15;4.03;;;1.80;;
20824;SDS011;10573;50.936;6.978;2023-06-26T12:32:43;5.35;;;1.85;;
20824;SDS011;10573;50.936;6.978;2023-06-26T12:35:10;8.00;;;2.00;;
20824;SDS011;10573;50.936;6.978;2023-06-26T12:37:38;5.32;;;2.30;;
20824;SDS011;10573;50.936;6.978;2023-06-26T12:40:19;9.15;;;1.50;;
20824;SDS011;10573;50.936;6.978;2023-06-26T12:42:48;7.20;;;1.55;;
20824;SDS011;10573;50.936;6.978;2023-06-26T12:57:22;6.30;;;1.40;;
20824;SDS011;10573;50.936;6.978;2023-06-26T12:59:48;5.40;;;1.05;;
20824;SDS011;10573;50.936;6.978;2023-06-26T13:07:06;4.28;;;1.77;;
20824;SDS011;10573;50.936;6.978;2023-06-26T13:09:33;4.73;;;1.63;;
20824;SDS011;10573;50.936;6.978;2023-06-26T13:12:00;4.00;;;1.20;;
20824;SDS011;10573;50.936;6.978;2023-06-26T13:14:26;8.27;;;1.60;;
20824;SDS011;10573;50.936;6.978;2023-06-26T13:16:52;5.73;;;1.50;;
20824;SDS011;10573;50.936;6.978;2023-06-26T13:19:17;7.47;;;1.47;;
20824;SDS011;10573;50.936;6.978;2023-06-26T13:21:42;13.50;;;1.73;;
20824;SDS011;10573;50.936;6.978;2023-06-26T13:24:08;8.57;;;1.60;;
20824;SDS011;10573;50.936;6.978;2023-06-26T13:26:34;6.93;;;1.30;;
20824;SDS011;10573;50.936;6.978;2023-06-26T13:29:00;6.88;;;1.77;;
20824;SDS011;10573;50.936;6.978;2023-06-26T13:31:25;12.88;;;1.77;;
20824;SDS011;10573;50.936;6.978;2023-06-26T13:33:51;8.90;;;1.35;;
20824;SDS011;10573;50.936;6.978;2023-06-26T13:36:19;7.47;;;1.13;;
20824;SDS011;10573;50.936;6.978;2023-06-26T13:38:46;10.05;;;1.30;;
20824;SDS011;10573;50.936;6.978;2023-06-26T13:41:13;14.50;;;1.65;;
20824;SDS011;10573;50.936;6.978;2023-06-26T13:43:38;8.00;;;1.43;;
20824;SDS011;10573;50.936;6.978;2023-06-26T13:46:04;13.00;;;1.47;;
20824;SDS011;10573;50.936;6.978;2023-06-26T13:48:29;12.27;;;1.60;;
20824;SDS011;10573;50.936;6.978;2023-06-26T13:50:55;9.38;;;1.30;;
20824;SDS011;10573;50.936;6.978;2023-06-26T13:53:21;2.85;;;1.33;;
20824;SDS011;10573;50.936;6.978;2023-06-26T13:55:47;5.75;;;1.63;;
20824;SDS011;10573;50.936;6.978;2023-06-26T13:58:12;9.13;;;1.58;;
20824;SDS011;10573;50.936;6.978;2023-06-26T14:00:38;8.95;;;1.27;;
20824;SDS011;10573;50.936;6.978;2023-06-26T14:03:04;7.28;;;1.10;;
20824;SDS011;10573;50.936;6.978;2023-06-26T14:05:34;6.30;;;1.40;;
20824;SDS011;10573;50.936;6.978;2023-06-26T14:08:04;11.15;;;1.30;;
20824;SDS011;10573;50.936;6.978;2023-06-26T14:10:30;5.20;;;1.02;;
20824;SDS011;10573;50.936;6.978;2023-06-26T14:12:58;9.40;;;1.58;;
20824;SDS011;10573;50.936;6.978;2023-06-26T14:15:23;6.10;;;1.02;;
20824;SDS011;10573;50.936;6.978;2023-06-26T14:17:49;5.25;;;1.10;;
20824;SDS011;10573;50.936;6.978;2023-06-26T14:20:15;6.05;;;1.10;;
20824;SDS011;10573;50.936;6.978;2023-06-26T14:22:41;2.72;;;1.00;;
20824;SDS011;10573;50.936;6.978;2023-06-26T14:25:09;2.95;;;0.98;;
20824;SDS011;10573;50.936;6.978;2023-06-26T14:27:35;4.65;;;1.48;;
20824;SDS011;10573;50.936;6.978;2023-06-26T14:30:02;2.88;;;1.40;;
20824;SDS011;10573;50.936;6.978;2023-06-26T14:32:28;10.95;;;1.85;;
20824;SDS011;10573;50.936;6.978;2023-06-26T14:34:55;5.80;;;1.20;;
20824;SDS011;10573;50.936;6.978;2023-06-26T14:37:21;12.75;;;1.60;;
20824;SDS011;10573;50.936;6.978;2023-06-26T14:39:46;8.07;;;1.47;;
20824;SDS011;10573;50.936;6.978;2023-06-26T14:42:11;5.83;;;1.40;;
20824;SDS011;10573;50.936;6.978;2023-06-26T14:44:37;3.73;;;1.50;;
20824;SDS011;10573;50.936;6.978;2023-06-26T14:47:03;6.93;;;1.50;;
20824;SDS011;10573;50.936;6.978;2023-06-26T14:49:29;10.80;;;1.67;;
20824;SDS011;10573;50.936;6.978;2023-06-26T14:51:55;4.80;;;1.13;;
20824;SDS011;10573;50.936;6.978;2023-06-26T14:54:20;4.93;;;1.17;;
20824;SDS011;10573;50.936;6.978;2023-06-26T14:56:46;4.40;;;1.55;;
20824;SDS011;10573;50.936;6.978;2023-06-26T14:59:11;6.05;;;1.10;;
20824;SDS011;10573;50.936;6.978;2023-06-26T15:01:37;2.63;;;1.10;;
20824;SDS011;10573;50.936;6.978;2023-06-26T15:04:03;6.00;;;1.75;;
20824;SDS011;10573;50.936;6.978;2023-06-26T15:06:29;9.93;;;1.38;;
20824;SDS011;10573;50.936;6.978;2023-06-26T15:08:55;5.85;;;1.48;;
20824;SDS011;10573;50.936;6.978;2023-06-26T15:11:20;9.70;;;1.27;;
20824;SDS011;10573;50.936;6.978;2023-06-26T15:13:46;3.22;;;1.15;;
20824;SDS011;10573;50.936;6.978;2023-06-26T15:16:11;6.07;;;1.10;;
20824;SDS011;10573;50.936;6.978;2023-06-26T15:18:36;6.25;;;1.50;;
20824;SDS011;10573;50.936;6.978;2023-06-26T15:21:02;9.82;;;1.60;;
20824;SDS011;10573;50.936;6.978;2023-06-26T15:23:30;13.65;;;1.77;;
20824;SDS011;10573;50.936;6.978;2023-06-26T15:25:55;7.80;;;1.45;;
20824;SDS011;10573;50.936;6.978;2023-06-26T15:28:21;7.70;;;2.08;;
20824;SDS011;10573;50.936;6.978;2023-06-26T15:30:47;9.75;;;1.90;;
20824;SDS011;10573;50.936;6.978;2023-06-26T16:12:02;3.75;;;1.20;;
20824;SDS011;10573;50.936;6.978;2023-06-26T16:14:28;6.00;;;1.40;;
20824;SDS011;10573;50.936;6.978;2023-06-26T16:16:53;4.80;;;1.30;;
20824;SDS011;10573;50.936;6.978;2023-06-26T16:19:19;6.53;;;1.60;;
20824;SDS011;10573;50.936;6.978;2023-06-26T16:21:44;8.40;;;2.30;;
20824;SDS011;10573;50.936;6.978;2023-06-26T16:24:10;8.57;;;1.35;;
20824;SDS011;10573;50.936;6.978;2023-06-26T16:26:35;7.22;;;1.27;;
20824;SDS011;10573;50.936;6.978;2023-06-26T16:29:00;6.85;;;1.17;;
20824;SDS011;10573;50.936;6.978;2023-06-26T16:31:26;3.88;;;1.10;;
20824;SDS011;10573;50.936;6.978;2023-06-26T16:33:51;6.50;;;1.00;;
20824;SDS011;10573;50.936;6.978;2023-06-26T16:36:17;6.70;;;1.10;;
20824;SDS011;10573;50.936;6.978;2023-06-26T16:38:42;2.83;;;0.98;;
20824;SDS011;10573;50.936;6.978;2023-06-26T16:41:08;5.95;;;0.93;;
20824;SDS011;10573;50.936;6.978;2023-06-26T16:43:34;4.85;;;1.25;;
20824;SDS011;10573;50.936;6.978;2023-06-26T16:46:00;8.05;;;1.38;;
20824;SDS011;10573;50.936;6.978;2023-06-26T16:48:29;2.90;;;1.27;;
20824;SDS011;10573;50.936;6.978;2023-06-26T16:50:54;2.45;;;1.10;;
20824;SDS011;10573;50.936;6.978;2023-06-26T16:53:20;5.18;;;1.17;;
20824;SDS011;10573;50.936;6.978;2023-06-26T16:55:45;4.90;;;1.20;;
20824;SDS011;10573;50.936;6.978;2023-06-26T16:58:11;1.90;;;1.17;;
20824;SDS011;10573;50.936;6.978;2023-06-26T17:00:36;7.75;;;1.10;;
20824;SDS011;10573;50.936;6.978;2023-06-26T17:03:05;3.33;;;1.10;;
20824;SDS011;10573;50.936;6.978;2023-06-26T17:05:31;6.50;;;1.02;;
20824;SDS011;10573;50.936;6.978;2023-06-26T17:07:56;3.63;;;1.40;;
20824;SDS011;10573;50.936;6.978;2023-06-26T17:10:22;2.83;;;0.88;;
20824;SDS011;10573;50.936;6.978;2023-06-26T17:12:47;1.85;;;1.15;;
20824;SDS011;10573;50.936;6.978;2023-06-26T17:15:13;5.47;;;1.20;;
20824;SDS011;10573;50.936;6.978;2023-06-26T17:17:38;5.10;;;1.17;;
20824;SDS011;10573;50.936;6.978;2023-06-26T17:20:04;4.25;;;1.27;;
20824;SDS011;10573;50.936;6.978;2023-06-26T17:22:34;5.95;;;1.00;;
20824;SDS011;10573;50.936;6.978;2023-06-26T17:25:00;2.20;;;1.05;;
20824;SDS011;10573;50.936;6.978;2023-06-26T17:27:30;3.67;;;1.35;;
20824;SDS011;10573;50.936;6.978;2023-06-26T17:29:56;1.75;;;1.20;;
20824;SDS011;10573;50.936;6.978;2023-06-26T17:32:22;6.60;;;0.93;;
20824;SDS011;10573;50.936;6.978;2023-06-26T17:34:48;5.63;;;1.27;;
20824;SDS011;10573;50.936;6.978;2023-06-26T17:37:14;5.68;;;1.27;;
20824;SDS011;10573;50.936;6.978;2023-06-26T17:39:39;3.58;;;1.30;;
20824;SDS011;10573;50.936;6.978;2023-06-26T17:42:05;2.13;;;1.38;;
20824;SDS011;10573;50.936;6.978;2023-06-26T17:44:31;7.32;;;2.08;;
20824;SDS011;10573;50.936;6.978;2023-06-26T17:46:56;3.75;;;1.50;;
20824;SDS011;10573;50.936;6.978;2023-06-26T17:49:22;4.10;;;1.25;;
20824;SDS011;10573;50.936;6.978;2023-06-26T17:51:47;3.70;;;0.97;;
20824;SDS011;10573;50.936;6.978;2023-06-26T17:54:13;18.73;;;1.88;;